createdAt,value
2023-04-04T00:19:23.004Z,52.48
2023-04-04T00:24:26.883Z,52.60
2023-04-04T00:29:30.152Z,52.31
2023-04-04T00:34:33.736Z,52.86
2023-04-04T00:39:37.025Z,53.20
2023-04-04T00:44:40.875Z,53.30
2023-04-04T00:49:46.666Z,53.15
2023-04-04T00:54:50.636Z,53.30
2023-04-04T00:59:53.878Z,53.33
2023-04-04T01:04:57.189Z,53.27
2023-04-04T01:10:02.719Z,53.41
2023-04-04T01:15:06.847Z,53.60
2023-04-04T01:20:17.956Z,53.83
2023-04-04T01:25:34.900Z,53.89
2023-04-04T01:30:45.895Z,53.97
2023-04-04T01:36:23.130Z,53.98
2023-04-04T01:41:29.282Z,53.77
2023-04-04T01:46:37.230Z,53.64
2023-04-04T01:51:41.657Z,53.73
2023-04-04T01:56:46.403Z,53.72
2023-04-04T02:01:50.188Z,53.84
2023-04-04T02:06:53.526Z,54.02
2023-04-04T02:11:57.617Z,53.82
2023-04-04T02:17:00.833Z,53.84
2023-04-04T02:22:04.630Z,53.86
2023-04-04T02:27:08.222Z,54.23
2023-04-04T02:32:11.910Z,54.32
2023-04-04T02:37:15.223Z,54.39
2023-04-04T02:42:19.190Z,54.74
2023-04-04T02:47:23.069Z,54.62
2023-04-04T02:52:26.912Z,54.56
2023-04-04T02:57:31.986Z,54.88
2023-04-04T03:02:35.734Z,54.78
2023-04-04T03:07:39.258Z,55.01
2023-04-04T03:12:42.672Z,55.84
2023-04-04T03:17:46.945Z,55.07
2023-04-04T03:22:50.574Z,55.11
2023-04-04T03:27:53.915Z,55.23
2023-04-04T03:32:59.526Z,54.90
2023-04-04T03:38:03.693Z,54.90
2023-04-04T03:43:07.875Z,54.59
2023-04-04T03:48:11.650Z,54.69
2023-04-04T03:53:16.527Z,54.51
2023-04-04T03:58:19.935Z,54.75
2023-04-04T04:03:23.487Z,55.24
2023-04-04T04:08:27.990Z,55.81
2023-04-04T04:13:31.369Z,55.28
2023-04-04T04:18:35.463Z,55.47
2023-04-04T04:23:39.619Z,55.52
2023-04-04T04:28:43.099Z,55.72
2023-04-04T04:33:50.762Z,55.86
2023-04-04T04:38:55.656Z,55.86
2023-04-04T04:44:01.168Z,55.82
2023-04-04T04:49:05.445Z,56.00
2023-04-04T04:54:09.005Z,55.82
2023-04-04T04:59:16.013Z,56.32
2023-04-04T05:04:20.503Z,56.29
2023-04-04T05:09:39.602Z,56.47
2023-04-04T05:14:43.025Z,56.31
2023-04-04T05:19:46.712Z,56.12
2023-04-04T05:24:53.348Z,56.14
2023-04-04T05:29:59.201Z,56.27
2023-04-04T05:35:07.454Z,56.30
2023-04-04T05:40:11.738Z,56.33
2023-04-04T05:45:15.474Z,56.59
2023-04-04T05:50:18.868Z,56.48
2023-04-04T05:55:25.496Z,56.68
2023-04-04T06:00:31.291Z,56.69
2023-04-04T06:05:39.404Z,56.56
2023-04-04T06:10:42.823Z,56.71
2023-04-04T06:15:46.493Z,56.53
2023-04-04T06:20:49.743Z,56.00
2023-04-04T06:25:54.303Z,55.46
2023-04-04T06:30:58.868Z,55.80
2023-04-04T06:36:11.335Z,55.88
2023-04-04T06:41:14.749Z,55.71
2023-04-04T06:46:18.474Z,55.50
2023-04-04T06:51:22.215Z,55.53
2023-04-04T06:56:27.197Z,55.21
2023-04-04T07:01:34.839Z,55.00
2023-04-04T07:06:38.207Z,54.75
2023-04-04T07:11:42.017Z,54.49
2023-04-04T07:16:45.389Z,54.46
2023-04-04T07:21:48.628Z,54.43
2023-04-04T07:26:52.240Z,54.41
2023-04-04T07:31:55.498Z,54.30
2023-04-04T07:36:58.739Z,54.07
2023-04-04T07:42:02.449Z,54.18
2023-04-04T07:47:09.836Z,53.92
2023-04-04T07:52:58.710Z,53.67
2023-04-04T07:58:02.750Z,53.81
2023-04-04T08:03:07.181Z,53.66
2023-04-04T08:08:28.116Z,53.51
2023-04-04T08:13:31.739Z,52.54
2023-04-04T08:18:35.195Z,51.93
2023-04-04T08:23:42.142Z,51.85
2023-04-04T08:28:45.655Z,51.72
2023-04-04T08:33:48.855Z,51.44
2023-04-04T08:38:52.091Z,51.89
2023-04-04T08:43:58.075Z,51.96
2023-04-04T08:49:04.435Z,51.84
2023-04-04T08:54:09.534Z,50.73
2023-04-04T08:59:16.114Z,49.86
2023-04-04T09:04:21.961Z,48.99
2023-04-04T09:09:25.365Z,49.14
2023-04-04T09:14:30.653Z,48.57
2023-04-04T09:19:34.118Z,48.27
2023-04-04T09:24:42.725Z,47.22
2023-04-04T09:36:02.702Z,45.97
2023-04-04T09:41:12.375Z,45.18
2023-04-04T09:46:19.596Z,44.53
2023-04-04T09:51:23.005Z,43.11
2023-04-04T09:56:28.183Z,44.45
2023-04-04T10:01:33.799Z,42.03
2023-04-04T10:06:38.029Z,42.25
2023-04-04T10:11:41.439Z,41.57
2023-04-04T10:16:45.925Z,41.28
2023-04-04T10:21:49.457Z,41.42
2023-04-04T10:26:54.387Z,41.19
2023-04-04T10:32:05.568Z,40.54
2023-04-04T10:37:16.928Z,39.55
2023-04-04T10:42:20.273Z,38.95
2023-04-04T10:47:26.622Z,39.71
2023-04-04T10:52:31.446Z,39.78
2023-04-04T10:57:43.207Z,40.01
2023-04-04T11:03:00.626Z,38.79
2023-04-04T11:08:09.478Z,38.35
2023-04-04T11:13:29.510Z,38.83
2023-04-04T11:18:34.337Z,38.98
2023-04-04T11:23:49.601Z,39.86
2023-04-04T11:28:56.482Z,39.38
2023-04-04T11:34:08.223Z,39.69
2023-04-04T11:39:27.190Z,39.80
2023-04-04T11:44:33.183Z,40.36
2023-04-04T11:49:37.403Z,40.37
2023-04-04T11:54:43.967Z,40.14
2023-04-04T11:59:49.737Z,39.64
2023-04-04T12:04:53.865Z,39.14
2023-04-04T12:09:57.934Z,38.56
2023-04-04T12:15:10.812Z,38.31
2023-04-04T12:20:23.797Z,37.99
2023-04-04T12:25:28.687Z,37.62
2023-04-04T12:30:33.434Z,38.08
2023-04-04T12:35:38.101Z,38.11
2023-04-04T12:40:42.312Z,38.86
2023-04-04T12:45:45.561Z,38.69
2023-04-04T12:50:52.229Z,37.70
2023-04-04T12:56:00.177Z,37.69
2023-04-04T13:01:04.391Z,38.62
2023-04-04T13:06:17.232Z,38.55
2023-04-04T13:11:21.111Z,38.19
2023-04-04T13:16:37.483Z,37.91
2023-04-04T13:21:41.088Z,38.40
2023-04-04T13:26:44.438Z,39.59
2023-04-04T13:31:47.899Z,39.63
2023-04-04T13:36:51.564Z,38.80
2023-04-04T13:41:54.795Z,38.91
2023-04-04T13:46:58.408Z,40.00
2023-04-04T13:52:01.832Z,39.74
2023-04-04T13:57:05.076Z,40.14
2023-04-04T14:02:09.497Z,40.86
2023-04-04T14:07:15.730Z,40.74
2023-04-04T14:17:57.927Z,39.59
2023-04-04T14:23:01.718Z,40.38
2023-04-04T14:28:09.220Z,40.69
2023-04-04T14:33:13.881Z,41.18
2023-04-04T14:42:52.722Z,41.40
2023-04-04T14:47:57.065Z,41.95
2023-04-04T14:53:01.096Z,42.09
2023-04-04T14:58:04.629Z,41.80
2023-04-04T15:03:08.966Z,41.87
2023-04-04T15:08:12.984Z,41.48
2023-04-04T15:13:17.058Z,42.94
2023-04-04T15:18:20.876Z,42.32
2023-04-04T15:23:24.916Z,41.96
2023-04-04T15:28:28.845Z,41.74
2023-04-04T15:33:33.231Z,41.42
2023-04-04T15:43:01.622Z,41.48
2023-04-04T15:48:12.003Z,44.63
2023-04-04T15:58:43.955Z,41.74
2023-04-04T16:03:52.169Z,42.72
2023-04-04T16:09:17.053Z,41.19
2023-04-04T16:14:24.474Z,41.65
2023-04-04T16:19:39.478Z,41.72
2023-04-04T16:24:50.956Z,41.40
2023-04-04T17:45:33.335Z,40.84
2023-04-04T17:50:44.157Z,40.62
2023-04-04T17:55:47.995Z,41.46
2023-04-04T18:00:53.049Z,41.49
2023-04-04T18:05:57.269Z,41.79
2023-04-04T18:11:00.850Z,41.61
2023-04-04T18:16:06.337Z,41.69
2023-04-04T18:21:10.027Z,42.30
2023-04-04T18:26:13.285Z,41.77
2023-04-04T18:31:16.710Z,41.60
2023-04-04T18:36:20.159Z,41.89
2023-04-04T18:41:23.682Z,43.21
2023-04-04T19:46:09.691Z,39.87
2023-04-04T19:51:15.738Z,40.53
2023-04-04T19:56:23.988Z,41.30
2023-04-04T20:01:29.599Z,40.46
2023-04-04T20:06:33.064Z,40.27
2023-04-04T20:11:37.104Z,40.40
2023-04-04T20:16:40.380Z,40.91
2023-04-04T20:21:44.284Z,41.13
2023-04-04T20:26:58.292Z,41.92
2023-04-04T20:32:04.994Z,41.92
2023-04-04T20:37:11.728Z,42.02
2023-04-04T20:42:19.810Z,42.23
2023-04-04T20:47:37.747Z,42.18
2023-04-04T20:52:43.518Z,42.03
2023-04-04T20:57:47.469Z,41.50
2023-04-04T21:02:50.745Z,41.65
2023-04-04T21:07:54.506Z,41.96
2023-04-04T21:13:01.009Z,42.07
2023-04-04T21:18:09.343Z,42.02
2023-04-04T21:23:28.027Z,42.44
2023-04-04T21:28:33.646Z,42.46
2023-04-04T21:33:38.264Z,43.02
2023-04-04T21:38:42.137Z,43.63
2023-04-04T21:44:43.613Z,43.78
2023-04-04T21:49:50.558Z,43.97
2023-04-04T21:54:54.321Z,44.01
2023-04-04T21:59:57.803Z,44.27
2023-04-04T22:05:18.161Z,44.84
2023-04-04T22:10:59.875Z,45.05
2023-04-04T22:16:21.570Z,45.39
2023-04-04T23:26:09.064Z,47.29
2023-04-04T23:37:57.977Z,46.92
2023-04-04T23:48:53.224Z,47.08
2023-04-04T23:54:01.161Z,46.99
